sensor_id;sensor_type;location;lat;lon;timestamp;temperature;humidity
31455;DHT22;18084;53.028;8.834;2022-07-15T00:00:59;12.30;90.00
31455;DHT22;18084;53.028;8.834;2022-07-15T00:05:57;12.20;87.80
31455;DHT22;18084;53.028;8.834;2022-07-15T00:18:34;12.10;93.10
31455;DHT22;18084;53.028;8.834;2022-07-15T00:38:34;12.00;97.30
31455;DHT22;18084;53.028;8.834;2022-07-15T00:43:28;12.00;96.20
31455;DHT22;18084;53.028;8.834;2022-07-15T00:58:44;11.90;95.80
31455;DHT22;18084;53.028;8.834;2022-07-15T01:03:53;11.90;96.50
31455;DHT22;18084;53.028;8.834;2022-07-15T01:11:37;11.90;95.60
31455;DHT22;18084;53.028;8.834;2022-07-15T01:19:07;12.10;95.40
31455;DHT22;18084;53.028;8.834;2022-07-15T01:40:03;12.40;80.10
31455;DHT22;18084;53.028;8.834;2022-07-15T01:54:41;12.60;52.80
31455;DHT22;18084;53.028;8.834;2022-07-15T01:57:53;12.60;51.70
31455;DHT22;18084;53.028;8.834;2022-07-15T02:16:49;12.70;30.50
31455;DHT22;18084;53.028;8.834;2022-07-15T02:40:09;12.80;27.40
31455;DHT22;18084;53.028;8.834;2022-07-15T02:43:30;12.80;21.50
31455;DHT22;18084;53.028;8.834;2022-07-15T02:52:03;12.80;14.00
31455;DHT22;18084;53.028;8.834;2022-07-15T02:55:02;12.90;18.30
31455;DHT22;18084;53.028;8.834;2022-07-15T03:36:04;12.90;45.60
31455;DHT22;18084;53.028;8.834;2022-07-15T03:43:31;12.90;53.90
31455;DHT22;18084;53.028;8.834;2022-07-15T04:04:46;13.10;53.10
31455;DHT22;18084;53.028;8.834;2022-07-15T05:10:09;14.00;1.00
31455;DHT22;18084;53.028;8.834;2022-07-15T05:12:36;14.10;1.00
31455;DHT22;18084;53.028;8.834;2022-07-15T05:15:01;14.10;1.00
31455;DHT22;18084;53.028;8.834;2022-07-15T05:17:27;14.20;1.00
31455;DHT22;18084;53.028;8.834;2022-07-15T05:19:53;14.20;1.00
31455;DHT22;18084;53.028;8.834;2022-07-15T05:22:19;14.30;1.00
31455;DHT22;18084;53.028;8.834;2022-07-15T05:24:45;14.30;1.00
31455;DHT22;18084;53.028;8.834;2022-07-15T05:27:11;14.30;1.00
31455;DHT22;18084;53.028;8.834;2022-07-15T05:29:37;14.40;1.00
31455;DHT22;18084;53.028;8.834;2022-07-15T05:32:02;14.50;99.90
31455;DHT22;18084;53.028;8.834;2022-07-15T05:34:28;14.60;99.90
31455;DHT22;18084;53.028;8.834;2022-07-15T05:36:53;14.60;99.90
31455;DHT22;18084;53.028;8.834;2022-07-15T05:39:19;14.70;99.90
31455;DHT22;18084;53.028;8.834;2022-07-15T05:41:44;14.70;99.90
31455;DHT22;18084;53.028;8.834;2022-07-15T05:44:10;14.80;99.90
31455;DHT22;18084;53.028;8.834;2022-07-15T05:46:35;14.80;99.90
31455;DHT22;18084;53.028;8.834;2022-07-15T05:49:01;14.90;99.90
31455;DHT22;18084;53.028;8.834;2022-07-15T05:51:27;15.00;99.90
31455;DHT22;18084;53.028;8.834;2022-07-15T05:53:54;15.00;99.90
31455;DHT22;18084;53.028;8.834;2022-07-15T05:56:20;15.10;62.20
31455;DHT22;18084;53.028;8.834;2022-07-15T05:58:45;16.20;99.90
31455;DHT22;18084;53.028;8.834;2022-07-15T06:01:11;15.90;99.90
31455;DHT22;18084;53.028;8.834;2022-07-15T06:03:36;16.60;92.50
31455;DHT22;18084;53.028;8.834;2022-07-15T06:06:03;16.60;99.90
31455;DHT22;18084;53.028;8.834;2022-07-15T06:08:29;16.80;1.00
31455;DHT22;18084;53.028;8.834;2022-07-15T06:10:54;16.70;1.00
31455;DHT22;18084;53.028;8.834;2022-07-15T06:13:20;16.60;1.00
31455;DHT22;18084;53.028;8.834;2022-07-15T06:15:46;16.40;99.90
31455;DHT22;18084;53.028;8.834;2022-07-15T06:18:11;16.20;39.90
31455;DHT22;18084;53.028;8.834;2022-07-15T06:20:37;16.10;43.00
31455;DHT22;18084;53.028;8.834;2022-07-15T06:23:02;16.00;1.00
31455;DHT22;18084;53.028;8.834;2022-07-15T06:25:28;16.10;99.90
31455;DHT22;18084;53.028;8.834;2022-07-15T06:27:53;16.30;99.90
31455;DHT22;18084;53.028;8.834;2022-07-15T06:30:19;16.70;1.00
31455;DHT22;18084;53.028;8.834;2022-07-15T06:32:44;17.20;34.80
31455;DHT22;18084;53.028;8.834;2022-07-15T06:35:10;17.60;87.40
31455;DHT22;18084;53.028;8.834;2022-07-15T06:37:37;17.40;17.10
31455;DHT22;18084;53.028;8.834;2022-07-15T06:40:03;17.20;99.90
31455;DHT22;18084;53.028;8.834;2022-07-15T06:42:29;17.00;1.00
31455;DHT22;18084;53.028;8.834;2022-07-15T06:44:54;16.60;1.00
31455;DHT22;18084;53.028;8.834;2022-07-15T06:47:20;16.60;1.00
31455;DHT22;18084;53.028;8.834;2022-07-15T06:49:46;16.50;12.90
31455;DHT22;18084;53.028;8.834;2022-07-15T06:52:11;16.40;28.80
31455;DHT22;18084;53.028;8.834;2022-07-15T06:54:37;16.40;99.90
31455;DHT22;18084;53.028;8.834;2022-07-15T06:57:03;16.30;24.70
31455;DHT22;18084;53.028;8.834;2022-07-15T06:59:28;16.30;99.90
31455;DHT22;18084;53.028;8.834;2022-07-15T07:01:54;17.80;99.90
31455;DHT22;18084;53.028;8.834;2022-07-15T07:04:21;16.50;99.90
31455;DHT22;18084;53.028;8.834;2022-07-15T07:06:47;16.60;24.30
31455;DHT22;18084;53.028;8.834;2022-07-15T07:09:13;16.60;99.90
31455;DHT22;18084;53.028;8.834;2022-07-15T07:11:38;16.60;99.90
31455;DHT22;18084;53.028;8.834;2022-07-15T07:14:05;16.50;99.90
31455;DHT22;18084;53.028;8.834;2022-07-15T07:16:31;16.60;99.90
31455;DHT22;18084;53.028;8.834;2022-07-15T07:18:57;16.70;99.90
31455;DHT22;18084;53.028;8.834;2022-07-15T07:21:29;16.70;99.90
31455;DHT22;18084;53.028;8.834;2022-07-15T07:23:55;16.70;99.90
31455;DHT22;18084;53.028;8.834;2022-07-15T07:26:20;16.60;99.90
31455;DHT22;18084;53.028;8.834;2022-07-15T07:28:46;16.60;99.90
31455;DHT22;18084;53.028;8.834;2022-07-15T07:31:14;16.70;99.90
31455;DHT22;18084;53.028;8.834;2022-07-15T07:33:39;16.80;99.90
31455;DHT22;18084;53.028;8.834;2022-07-15T07:36:06;16.80;1.00
31455;DHT22;18084;53.028;8.834;2022-07-15T07:38:33;16.90;1.00
31455;DHT22;18084;53.028;8.834;2022-07-15T07:40:59;16.90;1.00
31455;DHT22;18084;53.028;8.834;2022-07-15T07:43:25;17.10;40.60
31455;DHT22;18084;53.028;8.834;2022-07-15T07:45:50;17.00;34.20
31455;DHT22;18084;53.028;8.834;2022-07-15T07:48:16;17.10;1.00
31455;DHT22;18084;53.028;8.834;2022-07-15T07:50:42;17.10;1.00
31455;DHT22;18084;53.028;8.834;2022-07-15T07:53:08;17.20;1.00
31455;DHT22;18084;53.028;8.834;2022-07-15T07:55:33;17.20;1.00
31455;DHT22;18084;53.028;8.834;2022-07-15T07:57:59;17.30;99.90
31455;DHT22;18084;53.028;8.834;2022-07-15T08:00:25;17.10;1.00
31455;DHT22;18084;53.028;8.834;2022-07-15T08:02:52;16.80;1.00
31455;DHT22;18084;53.028;8.834;2022-07-15T08:05:18;16.80;1.00
31455;DHT22;18084;53.028;8.834;2022-07-15T08:07:44;16.80;1.00
31455;DHT22;18084;53.028;8.834;2022-07-15T08:10:10;16.70;4.10
31455;DHT22;18084;53.028;8.834;2022-07-15T08:12:36;16.70;99.90
31455;DHT22;18084;53.028;8.834;2022-07-15T08:15:04;16.60;99.90
31455;DHT22;18084;53.028;8.834;2022-07-15T08:17:30;16.70;1.00
31455;DHT22;18084;53.028;8.834;2022-07-15T08:19:55;17.00;99.90
31455;DHT22;18084;53.028;8.834;2022-07-15T08:22:21;17.30;59.70
31455;DHT22;18084;53.028;8.834;2022-07-15T08:24:47;17.60;1.00
31455;DHT22;18084;53.028;8.834;2022-07-15T08:27:15;18.20;1.00
31455;DHT22;18084;53.028;8.834;2022-07-15T08:29:40;18.60;99.90
31455;DHT22;18084;53.028;8.834;2022-07-15T08:32:06;18.90;99.90
31455;DHT22;18084;53.028;8.834;2022-07-15T08:34:31;19.10;99.90
31455;DHT22;18084;53.028;8.834;2022-07-15T08:36:57;19.40;83.00
31455;DHT22;18084;53.028;8.834;2022-07-15T08:39:22;20.00;27.10
31455;DHT22;18084;53.028;8.834;2022-07-15T08:41:50;20.90;1.00
31455;DHT22;18084;53.028;8.834;2022-07-15T08:44:16;21.40;1.00
31455;DHT22;18084;53.028;8.834;2022-07-15T08:46:47;21.80;99.90
31455;DHT22;18084;53.028;8.834;2022-07-15T08:49:15;22.00;99.90
31455;DHT22;18084;53.028;8.834;2022-07-15T08:51:45;22.10;99.90
31455;DHT22;18084;53.028;8.834;2022-07-15T08:54:12;22.60;99.90
31455;DHT22;18084;53.028;8.834;2022-07-15T08:56:38;22.20;99.90
31455;DHT22;18084;53.028;8.834;2022-07-15T08:59:04;21.00;99.90
31455;DHT22;18084;53.028;8.834;2022-07-15T09:01:31;21.30;99.90
31455;DHT22;18084;53.028;8.834;2022-07-15T09:03:57;22.20;99.90
31455;DHT22;18084;53.028;8.834;2022-07-15T09:06:41;22.10;99.90
31455;DHT22;18084;53.028;8.834;2022-07-15T09:09:29;21.60;99.90
31455;DHT22;18084;53.028;8.834;2022-07-15T09:11:57;21.30;99.90
31455;DHT22;18084;53.028;8.834;2022-07-15T09:14:27;21.40;99.90
31455;DHT22;18084;53.028;8.834;2022-07-15T09:19:58;22.10;99.90
31455;DHT22;18084;53.028;8.834;2022-07-15T09:22:25;21.40;99.90
31455;DHT22;18084;53.028;8.834;2022-07-15T09:25:03;22.00;99.90
31455;DHT22;18084;53.028;8.834;2022-07-15T09:27:37;21.60;99.90
31455;DHT22;18084;53.028;8.834;2022-07-15T09:30:14;21.20;99.90
31455;DHT22;18084;53.028;8.834;2022-07-15T09:33:00;21.70;99.90
31455;DHT22;18084;53.028;8.834;2022-07-15T09:35:45;22.10;99.90
31455;DHT22;18084;53.028;8.834;2022-07-15T09:40:58;21.70;99.90
31455;DHT22;18084;53.028;8.834;2022-07-15T09:43:24;20.90;99.90
31455;DHT22;18084;53.028;8.834;2022-07-15T09:45:56;20.80;99.90
31455;DHT22;18084;53.028;8.834;2022-07-15T09:48:22;20.60;99.90
31455;DHT22;18084;53.028;8.834;2022-07-15T09:50:49;20.60;99.90
31455;DHT22;18084;53.028;8.834;2022-07-15T09:53:15;20.50;99.90
31455;DHT22;18084;53.028;8.834;2022-07-15T09:55:41;20.50;99.90
31455;DHT22;18084;53.028;8.834;2022-07-15T09:58:07;20.30;99.90
31455;DHT22;18084;53.028;8.834;2022-07-15T10:00:34;20.20;99.90
31455;DHT22;18084;53.028;8.834;2022-07-15T10:03:01;20.40;99.90
31455;DHT22;18084;53.028;8.834;2022-07-15T10:05:27;20.20;99.90
31455;DHT22;18084;53.028;8.834;2022-07-15T10:07:54;20.50;99.90
31455;DHT22;18084;53.028;8.834;2022-07-15T10:10:22;20.40;99.90
31455;DHT22;18084;53.028;8.834;2022-07-15T10:12:52;19.80;99.90
31455;DHT22;18084;53.028;8.834;2022-07-15T10:18:30;19.30;99.90
31455;DHT22;18084;53.028;8.834;2022-07-15T10:21:24;18.90;99.90
31455;DHT22;18084;53.028;8.834;2022-07-15T10:24:02;18.40;1.00
31455;DHT22;18084;53.028;8.834;2022-07-15T10:29:38;17.90;99.90
31455;DHT22;18084;53.028;8.834;2022-07-15T10:32:04;17.30;99.90
31455;DHT22;18084;53.028;8.834;2022-07-15T10:34:31;18.30;66.80
31455;DHT22;18084;53.028;8.834;2022-07-15T10:36:58;16.70;99.90
31455;DHT22;18084;53.028;8.834;2022-07-15T10:39:27;16.60;99.90
31455;DHT22;18084;53.028;8.834;2022-07-15T10:44:23;16.40;99.90
31455;DHT22;18084;53.028;8.834;2022-07-15T10:49:38;16.30;99.90
31455;DHT22;18084;53.028;8.834;2022-07-15T10:57:32;16.80;1.00
31455;DHT22;18084;53.028;8.834;2022-07-15T11:03:07;17.20;1.00
31455;DHT22;18084;53.028;8.834;2022-07-15T11:05:35;17.50;99.90
31455;DHT22;18084;53.028;8.834;2022-07-15T11:10:56;18.00;99.90
31455;DHT22;18084;53.028;8.834;2022-07-15T11:13:33;18.50;99.90
31455;DHT22;18084;53.028;8.834;2022-07-15T11:16:00;18.40;99.90
31455;DHT22;18084;53.028;8.834;2022-07-15T11:18:25;18.50;99.90
31455;DHT22;18084;53.028;8.834;2022-07-15T11:20:52;18.70;99.90
31455;DHT22;18084;53.028;8.834;2022-07-15T11:23:19;18.70;99.90
31455;DHT22;18084;53.028;8.834;2022-07-15T11:25:47;18.70;99.90
31455;DHT22;18084;53.028;8.834;2022-07-15T11:28:14;18.70;99.90
31455;DHT22;18084;53.028;8.834;2022-07-15T11:30:43;18.90;99.90
31455;DHT22;18084;53.028;8.834;2022-07-15T11:33:12;19.50;99.90
31455;DHT22;18084;53.028;8.834;2022-07-15T11:35:59;19.40;99.90
31455;DHT22;18084;53.028;8.834;2022-07-15T11:38:37;19.50;1.00
31455;DHT22;18084;53.028;8.834;2022-07-15T11:41:04;19.40;99.90
31455;DHT22;18084;53.028;8.834;2022-07-15T11:44:09;19.70;99.90
31455;DHT22;18084;53.028;8.834;2022-07-15T11:46:53;20.00;99.90
31455;DHT22;18084;53.028;8.834;2022-07-15T11:49:34;20.00;99.90
31455;DHT22;18084;53.028;8.834;2022-07-15T11:52:02;19.90;99.90
31455;DHT22;18084;53.028;8.834;2022-07-15T11:54:28;19.80;99.90
31455;DHT22;18084;53.028;8.834;2022-07-15T11:56:59;19.90;99.90
31455;DHT22;18084;53.028;8.834;2022-07-15T11:59:25;19.90;99.90
31455;DHT22;18084;53.028;8.834;2022-07-15T12:02:07;20.00;99.90
31455;DHT22;18084;53.028;8.834;2022-07-15T12:04:34;19.90;99.90
31455;DHT22;18084;53.028;8.834;2022-07-15T12:07:00;20.00;99.90
31455;DHT22;18084;53.028;8.834;2022-07-15T12:09:27;20.20;97.40
31455;DHT22;18084;53.028;8.834;2022-07-15T12:12:03;20.40;88.90
31455;DHT22;18084;53.028;8.834;2022-07-15T12:14:28;20.70;89.30
31455;DHT22;18084;53.028;8.834;2022-07-15T12:16:54;20.90;1.00
31455;DHT22;18084;53.028;8.834;2022-07-15T12:19:25;20.90;1.00
31455;DHT22;18084;53.028;8.834;2022-07-15T12:22:01;20.90;1.00
31455;DHT22;18084;53.028;8.834;2022-07-15T12:24:46;21.00;1.00
31455;DHT22;18084;53.028;8.834;2022-07-15T12:27:15;21.00;1.00
31455;DHT22;18084;53.028;8.834;2022-07-15T12:29:42;20.80;1.00
31455;DHT22;18084;53.028;8.834;2022-07-15T12:32:11;20.80;1.00
31455;DHT22;18084;53.028;8.834;2022-07-15T12:37:13;21.40;1.00
31455;DHT22;18084;53.028;8.834;2022-07-15T12:40:04;21.80;1.00
31455;DHT22;18084;53.028;8.834;2022-07-15T12:42:42;21.90;1.00
31455;DHT22;18084;53.028;8.834;2022-07-15T12:45:19;21.70;1.00
31455;DHT22;18084;53.028;8.834;2022-07-15T12:48:05;21.40;1.00
31455;DHT22;18084;53.028;8.834;2022-07-15T12:53:17;21.00;99.90
31455;DHT22;18084;53.028;8.834;2022-07-15T12:55:49;20.60;99.90
31455;DHT22;18084;53.028;8.834;2022-07-15T12:58:24;20.20;99.90
31455;DHT22;18084;53.028;8.834;2022-07-15T13:00:50;20.00;73.60
31455;DHT22;18084;53.028;8.834;2022-07-15T13:05:43;18.70;99.90
31455;DHT22;18084;53.028;8.834;2022-07-15T13:08:12;18.40;99.90
31455;DHT22;18084;53.028;8.834;2022-07-15T13:10:40;18.10;99.90
31455;DHT22;18084;53.028;8.834;2022-07-15T13:13:07;18.00;99.90
31455;DHT22;18084;53.028;8.834;2022-07-15T13:15:33;18.10;99.90
31455;DHT22;18084;53.028;8.834;2022-07-15T13:17:59;18.30;99.90
31455;DHT22;18084;53.028;8.834;2022-07-15T13:20:25;18.70;99.90
31455;DHT22;18084;53.028;8.834;2022-07-15T13:22:51;18.70;18.90
31455;DHT22;18084;53.028;8.834;2022-07-15T13:25:17;18.60;99.60
31455;DHT22;18084;53.028;8.834;2022-07-15T13:27:43;18.80;99.90
31455;DHT22;18084;53.028;8.834;2022-07-15T13:30:09;18.90;99.90
31455;DHT22;18084;53.028;8.834;2022-07-15T13:32:35;19.00;65.10
31455;DHT22;18084;53.028;8.834;2022-07-15T13:35:00;19.00;48.50
31455;DHT22;18084;53.028;8.834;2022-07-15T13:39:52;19.00;23.60
31455;DHT22;18084;53.028;8.834;2022-07-15T13:42:18;19.10;94.30
31455;DHT22;18084;53.028;8.834;2022-07-15T13:44:44;19.30;99.90
31455;DHT22;18084;53.028;8.834;2022-07-15T13:52:21;19.90;99.90
31455;DHT22;18084;53.028;8.834;2022-07-15T13:54:47;19.80;99.90
31455;DHT22;18084;53.028;8.834;2022-07-15T13:57:12;19.50;99.90
31455;DHT22;18084;53.028;8.834;2022-07-15T13:59:38;19.10;77.80
31455;DHT22;18084;53.028;8.834;2022-07-15T14:02:03;19.10;1.00
31455;DHT22;18084;53.028;8.834;2022-07-15T14:04:31;18.70;99.90
31455;DHT22;18084;53.028;8.834;2022-07-15T14:06:57;18.10;1.00
31455;DHT22;18084;53.028;8.834;2022-07-15T14:09:23;18.10;1.00
31455;DHT22;18084;53.028;8.834;2022-07-15T14:11:48;18.00;1.00
31455;DHT22;18084;53.028;8.834;2022-07-15T14:14:14;17.80;1.00
31455;DHT22;18084;53.028;8.834;2022-07-15T14:16:40;17.90;1.00
31455;DHT22;18084;53.028;8.834;2022-07-15T14:19:05;17.90;1.00
31455;DHT22;18084;53.028;8.834;2022-07-15T14:21:31;18.00;1.00
31455;DHT22;18084;53.028;8.834;2022-07-15T14:23:57;18.00;99.90
31455;DHT22;18084;53.028;8.834;2022-07-15T14:26:22;18.10;99.90
31455;DHT22;18084;53.028;8.834;2022-07-15T14:28:48;18.10;97.70
31455;DHT22;18084;53.028;8.834;2022-07-15T14:31:13;18.20;99.90
31455;DHT22;18084;53.028;8.834;2022-07-15T14:33:40;18.70;99.90
31455;DHT22;18084;53.028;8.834;2022-07-15T14:36:07;18.70;99.90
31455;DHT22;18084;53.028;8.834;2022-07-15T14:38:32;19.10;99.90
31455;DHT22;18084;53.028;8.834;2022-07-15T14:40:58;19.20;1.00
31455;DHT22;18084;53.028;8.834;2022-07-15T14:43:24;19.10;99.90
31455;DHT22;18084;53.028;8.834;2022-07-15T14:45:49;19.00;99.90
31455;DHT22;18084;53.028;8.834;2022-07-15T14:48:15;19.00;99.90
31455;DHT22;18084;53.028;8.834;2022-07-15T14:50:40;18.80;99.90
31455;DHT22;18084;53.028;8.834;2022-07-15T14:53:06;18.70;99.90
31455;DHT22;18084;53.028;8.834;2022-07-15T14:55:32;18.60;99.90
31455;DHT22;18084;53.028;8.834;2022-07-15T14:57:57;18.50;1.00
31455;DHT22;18084;53.028;8.834;2022-07-15T15:00:23;18.50;1.00
31455;DHT22;18084;53.028;8.834;2022-07-15T15:02:48;18.10;45.50
31455;DHT22;18084;53.028;8.834;2022-07-15T15:05:14;18.10;1.00
31455;DHT22;18084;53.028;8.834;2022-07-15T15:07:39;17.90;99.90
31455;DHT22;18084;53.028;8.834;2022-07-15T15:10:05;17.90;99.90
31455;DHT22;18084;53.028;8.834;2022-07-15T15:12:31;17.70;99.90
31455;DHT22;18084;53.028;8.834;2022-07-15T15:14:56;17.60;99.90
31455;DHT22;18084;53.028;8.834;2022-07-15T15:17:22;17.40;99.90
31455;DHT22;18084;53.028;8.834;2022-07-15T15:19:47;17.30;95.50
31455;DHT22;18084;53.028;8.834;2022-07-15T15:22:13;17.30;99.90
31455;DHT22;18084;53.028;8.834;2022-07-15T15:27:05;17.10;1.00
31455;DHT22;18084;53.028;8.834;2022-07-15T15:29:32;16.90;1.00
31455;DHT22;18084;53.028;8.834;2022-07-15T15:31:58;16.90;1.00
31455;DHT22;18084;53.028;8.834;2022-07-15T15:34:23;16.90;1.00
31455;DHT22;18084;53.028;8.834;2022-07-15T15:36:49;16.90;6.10
31455;DHT22;18084;53.028;8.834;2022-07-15T15:39:15;16.90;7.60
31455;DHT22;18084;53.028;8.834;2022-07-15T15:41:41;16.80;1.00
31455;DHT22;18084;53.028;8.834;2022-07-15T15:44:06;16.80;1.00
31455;DHT22;18084;53.028;8.834;2022-07-15T15:46:32;16.80;1.00
31455;DHT22;18084;53.028;8.834;2022-07-15T15:48:58;16.70;1.00
31455;DHT22;18084;53.028;8.834;2022-07-15T15:51:23;16.80;9.50
31455;DHT22;18084;53.028;8.834;2022-07-15T15:53:49;16.80;1.00
31455;DHT22;18084;53.028;8.834;2022-07-15T15:56:14;16.90;1.00
31455;DHT22;18084;53.028;8.834;2022-07-15T15:58:40;16.90;1.00
31455;DHT22;18084;53.028;8.834;2022-07-15T16:01:06;16.90;1.00
31455;DHT22;18084;53.028;8.834;2022-07-15T16:03:31;17.00;1.00
31455;DHT22;18084;53.028;8.834;2022-07-15T16:05:56;17.00;1.00
31455;DHT22;18084;53.028;8.834;2022-07-15T16:08:22;17.20;1.00
31455;DHT22;18084;53.028;8.834;2022-07-15T16:10:48;17.20;1.00
31455;DHT22;18084;53.028;8.834;2022-07-15T16:13:13;17.20;99.90
31455;DHT22;18084;53.028;8.834;2022-07-15T16:15:39;17.40;1.00
31455;DHT22;18084;53.028;8.834;2022-07-15T16:18:05;17.50;99.90
31455;DHT22;18084;53.028;8.834;2022-07-15T16:20:30;17.60;99.90
31455;DHT22;18084;53.028;8.834;2022-07-15T16:22:56;17.60;99.90
31455;DHT22;18084;53.028;8.834;2022-07-15T16:25:29;17.70;99.90
31455;DHT22;18084;53.028;8.834;2022-07-15T16:27:57;18.00;99.90
31455;DHT22;18084;53.028;8.834;2022-07-15T16:30:23;18.20;99.90
31455;DHT22;18084;53.028;8.834;2022-07-15T16:32:50;18.30;99.90
31455;DHT22;18084;53.028;8.834;2022-07-15T16:35:21;18.60;99.90
31455;DHT22;18084;53.028;8.834;2022-07-15T16:37:48;18.50;1.00
31455;DHT22;18084;53.028;8.834;2022-07-15T16:40:13;18.50;99.90
31455;DHT22;18084;53.028;8.834;2022-07-15T16:42:39;18.40;49.50
31455;DHT22;18084;53.028;8.834;2022-07-15T16:45:05;18.40;99.90
31455;DHT22;18084;53.028;8.834;2022-07-15T16:47:31;18.20;99.90
31455;DHT22;18084;53.028;8.834;2022-07-15T16:49:56;18.10;1.00
31455;DHT22;18084;53.028;8.834;2022-07-15T16:52:22;18.00;99.90
31455;DHT22;18084;53.028;8.834;2022-07-15T16:54:47;18.00;99.90
31455;DHT22;18084;53.028;8.834;2022-07-15T16:57:13;17.80;99.90
31455;DHT22;18084;53.028;8.834;2022-07-15T16:59:38;17.80;99.90
31455;DHT22;18084;53.028;8.834;2022-07-15T17:02:09;17.80;99.90
31455;DHT22;18084;53.028;8.834;2022-07-15T17:04:35;17.80;99.90
31455;DHT22;18084;53.028;8.834;2022-07-15T17:07:01;17.80;99.40
31455;DHT22;18084;53.028;8.834;2022-07-15T17:09:27;17.90;99.90
31455;DHT22;18084;53.028;8.834;2022-07-15T17:11:52;17.80;1.00
31455;DHT22;18084;53.028;8.834;2022-07-15T17:14:18;17.80;1.00
31455;DHT22;18084;53.028;8.834;2022-07-15T17:16:44;17.80;91.20
31455;DHT22;18084;53.028;8.834;2022-07-15T17:19:09;17.80;70.40
31455;DHT22;18084;53.028;8.834;2022-07-15T17:21:35;17.80;99.90
31455;DHT22;18084;53.028;8.834;2022-07-15T17:24:01;17.90;99.90
31455;DHT22;18084;53.028;8.834;2022-07-15T17:26:27;17.90;95.40
31455;DHT22;18084;53.028;8.834;2022-07-15T17:28:53;17.90;11.30
31455;DHT22;18084;53.028;8.834;2022-07-15T17:31:18;17.90;1.00
31455;DHT22;18084;53.028;8.834;2022-07-15T17:33:44;18.00;99.90
31455;DHT22;18084;53.028;8.834;2022-07-15T17:36:09;17.90;99.90
31455;DHT22;18084;53.028;8.834;2022-07-15T17:38:35;17.90;99.90
31455;DHT22;18084;53.028;8.834;2022-07-15T17:41:00;17.80;37.50
31455;DHT22;18084;53.028;8.834;2022-07-15T17:43:28;17.80;99.90
31455;DHT22;18084;53.028;8.834;2022-07-15T17:45:53;17.70;99.90
31455;DHT22;18084;53.028;8.834;2022-07-15T17:48:19;17.70;99.90
31455;DHT22;18084;53.028;8.834;2022-07-15T17:50:44;17.60;1.00
31455;DHT22;18084;53.028;8.834;2022-07-15T17:53:10;17.70;1.00
31455;DHT22;18084;53.028;8.834;2022-07-15T17:55:35;17.60;1.00
31455;DHT22;18084;53.028;8.834;2022-07-15T17:58:01;17.60;1.00
31455;DHT22;18084;53.028;8.834;2022-07-15T18:00:26;17.60;1.00
31455;DHT22;18084;53.028;8.834;2022-07-15T18:02:52;17.60;99.90
31455;DHT22;18084;53.028;8.834;2022-07-15T18:05:17;17.60;47.20
31455;DHT22;18084;53.028;8.834;2022-07-15T18:07:43;17.60;1.00
31455;DHT22;18084;53.028;8.834;2022-07-15T18:10:08;17.60;99.90
31455;DHT22;18084;53.028;8.834;2022-07-15T18:12:34;17.60;99.90
31455;DHT22;18084;53.028;8.834;2022-07-15T18:14:59;17.60;1.00
31455;DHT22;18084;53.028;8.834;2022-07-15T18:17:25;17.70;99.90
31455;DHT22;18084;53.028;8.834;2022-07-15T18:19:50;17.60;1.00
31455;DHT22;18084;53.028;8.834;2022-07-15T18:22:16;17.60;48.60
31455;DHT22;18084;53.028;8.834;2022-07-15T18:24:41;17.50;99.90
31455;DHT22;18084;53.028;8.834;2022-07-15T18:27:08;17.40;1.00
31455;DHT22;18084;53.028;8.834;2022-07-15T18:29:33;17.50;1.00
31455;DHT22;18084;53.028;8.834;2022-07-15T18:31:59;17.40;1.00
31455;DHT22;18084;53.028;8.834;2022-07-15T18:34:26;17.40;99.90
31455;DHT22;18084;53.028;8.834;2022-07-15T18:36:52;17.40;1.00
31455;DHT22;18084;53.028;8.834;2022-07-15T18:39:17;17.40;99.90
31455;DHT22;18084;53.028;8.834;2022-07-15T18:41:44;17.40;1.00
31455;DHT22;18084;53.028;8.834;2022-07-15T18:44:09;17.30;1.00
31455;DHT22;18084;53.028;8.834;2022-07-15T18:46:35;17.30;92.70
31455;DHT22;18084;53.028;8.834;2022-07-15T18:49:00;17.30;1.00
31455;DHT22;18084;53.028;8.834;2022-07-15T18:51:26;17.30;1.00
31455;DHT22;18084;53.028;8.834;2022-07-15T18:53:52;17.20;1.00
31455;DHT22;18084;53.028;8.834;2022-07-15T18:56:17;17.20;99.90
31455;DHT22;18084;53.028;8.834;2022-07-15T18:58:43;17.20;99.90
31455;DHT22;18084;53.028;8.834;2022-07-15T19:01:09;17.10;99.90
31455;DHT22;18084;53.028;8.834;2022-07-15T19:03:34;17.10;99.90
31455;DHT22;18084;53.028;8.834;2022-07-15T19:06:00;17.10;99.90
31455;DHT22;18084;53.028;8.834;2022-07-15T19:08:26;17.10;99.90
31455;DHT22;18084;53.028;8.834;2022-07-15T19:10:52;17.00;99.90
31455;DHT22;18084;53.028;8.834;2022-07-15T19:13:19;17.00;1.00
31455;DHT22;18084;53.028;8.834;2022-07-15T19:15:45;17.00;1.00
31455;DHT22;18084;53.028;8.834;2022-07-15T19:18:11;16.90;1.00
31455;DHT22;18084;53.028;8.834;2022-07-15T19:20:36;16.90;1.00
31455;DHT22;18084;53.028;8.834;2022-07-15T19:25:28;16.90;1.00
31455;DHT22;18084;53.028;8.834;2022-07-15T19:27:53;16.80;1.00
31455;DHT22;18084;53.028;8.834;2022-07-15T19:30:19;16.50;1.00
31455;DHT22;18084;53.028;8.834;2022-07-15T19:32:44;16.70;1.00
31455;DHT22;18084;53.028;8.834;2022-07-15T19:35:10;16.70;1.00
31455;DHT22;18084;53.028;8.834;2022-07-15T19:37:36;16.70;1.00
31455;DHT22;18084;53.028;8.834;2022-07-15T19:40:10;16.60;9.70
31455;DHT22;18084;53.028;8.834;2022-07-15T19:42:37;16.60;19.90
31455;DHT22;18084;53.028;8.834;2022-07-15T19:45:04;16.60;27.10
31455;DHT22;18084;53.028;8.834;2022-07-15T19:47:30;16.50;37.70
31455;DHT22;18084;53.028;8.834;2022-07-15T19:49:56;16.50;44.40
31455;DHT22;18084;53.028;8.834;2022-07-15T19:52:21;16.40;50.40
31455;DHT22;18084;53.028;8.834;2022-07-15T19:54:47;16.50;62.10
31455;DHT22;18084;53.028;8.834;2022-07-15T19:57:12;16.40;71.30
31455;DHT22;18084;53.028;8.834;2022-07-15T19:59:38;16.40;71.50
31455;DHT22;18084;53.028;8.834;2022-07-15T20:02:22;16.40;77.90
31455;DHT22;18084;53.028;8.834;2022-07-15T20:04:47;16.40;84.00
31455;DHT22;18084;53.028;8.834;2022-07-15T20:07:13;16.30;84.60
31455;DHT22;18084;53.028;8.834;2022-07-15T20:09:38;16.30;85.10
31455;DHT22;18084;53.028;8.834;2022-07-15T20:12:04;16.30;88.60
31455;DHT22;18084;53.028;8.834;2022-07-15T20:14:30;16.30;86.80
31455;DHT22;18084;53.028;8.834;2022-07-15T20:16:56;16.30;86.40
31455;DHT22;18084;53.028;8.834;2022-07-15T20:19:22;16.20;87.90
31455;DHT22;18084;53.028;8.834;2022-07-15T20:21:47;16.20;89.80
31455;DHT22;18084;53.028;8.834;2022-07-15T20:24:13;16.10;90.90
31455;DHT22;18084;53.028;8.834;2022-07-15T20:26:38;16.10;92.20
31455;DHT22;18084;53.028;8.834;2022-07-15T20:29:04;16.10;92.80
31455;DHT22;18084;53.028;8.834;2022-07-15T20:31:29;16.10;92.80
31455;DHT22;18084;53.028;8.834;2022-07-15T20:33:55;16.10;93.00
31455;DHT22;18084;53.028;8.834;2022-07-15T20:36:20;16.10;93.60
31455;DHT22;18084;53.028;8.834;2022-07-15T20:38:48;16.10;93.50
31455;DHT22;18084;53.028;8.834;2022-07-15T20:41:13;16.00;94.40
31455;DHT22;18084;53.028;8.834;2022-07-15T20:43:39;16.00;94.10